Aviation Digital Data Service (ADDS)

Output produced by METARs form (0439 UTC 10 February 2016)
found at http://aviationweather.gov/adds/metars/
 
KBAF 100253Z 1003/1024 00000KT P6SM SCT040 BKN060 
     FM100600 00000KT P6SM OVC040 
     FM101100 00000KT P6SM VCSH OVC020 
     FM102100 24005KT P6SM OVC035